Track BPM Size Size Produced Genre Timesort icon Time
Wien 176 91 0.55 MB Sep 2011 Hip-hop 91 01:31
Syrup 90 140 0.84 MB Mar 2012 Hip-hop 140 02:20
Simpleton 80 147 0.88 MB Aug 2010 Hip-hop 147 02:27
Risky 80 155 0.93 MB Aug 2010 Hip-hop 155 02:35
Roaming 86 160 0.96 MB Mar 2011 Hip-hop 160 02:40
Crave That 70 163 0.98 MB Nov 2010 Hip-hop 163 02:43
Burger Town 90 164 0.98 MB Sep 2010 Hip-hop 164 02:44
Collection Hop Mix 80 164 0.98 MB May 2011 Hip-hop 164 02:44
Hippo 80 165 0.99 MB May 2018 Hip-hop 165 02:45
8 Bar Hop 100 167 1 MB Aug 2010 Hip-hop 167 02:47
Ah Bingo 80 168 1.01 MB Nov 2011 Hip-hop 168 02:48
Kevin Eleven 80 168 1.01 MB Nov 2010 Hip-hop 168 02:48
Space Hop 84 169 1.01 MB Sep 2013 Hip-hop 169 02:49
Skulls 110 170 1.02 MB Feb 2011 Hip-hop 170 02:50
Atomic Monster 90 173 1.04 MB Mar 2012 Hip-hop 173 02:53
Screeeeetch 80 174 1.04 MB Nov 2011 Hip-hop 174 02:54
Vegas Panda 96 174 1.04 MB Aug 2010 Hip-hop 174 02:54
J Lab 90 175 1.05 MB Dec 2010 Hip-hop 175 02:55
Dr Hexagon 87 177 1.06 MB Mar 2011 Hip-hop 177 02:57
Rocket Cat 96 177 1.06 MB Aug 2010 Hip-hop 177 02:57
Under the Knife 79 178 1.07 MB Jan 2013 Hip-hop 178 02:58